createdAt,value
2022-12-18T00:29:02.692Z,0
2022-12-18T00:29:43.074Z,0
2022-12-18T00:30:23.587Z,0
2022-12-18T00:31:04.106Z,0
2022-12-18T00:31:44.679Z,0
2022-12-18T00:32:25.082Z,0
2022-12-18T00:33:05.596Z,0
2022-12-18T00:33:46.114Z,0
2022-12-18T00:34:26.614Z,0
2022-12-18T00:35:07.090Z,0
2022-12-18T00:35:47.583Z,0
2022-12-18T00:42:32.696Z,0
2022-12-18T00:43:13.198Z,0
2022-12-18T00:43:53.670Z,0
2022-12-18T00:44:34.173Z,0
2022-12-18T00:45:14.674Z,0
2022-12-18T00:45:55.203Z,0
2022-12-18T00:46:35.682Z,0
2022-12-18T00:47:16.140Z,0
2022-12-18T00:47:56.626Z,0
2022-12-18T00:48:37.112Z,0
2022-12-18T00:49:17.606Z,0
2022-12-18T00:56:02.635Z,0
2022-12-18T00:56:49.161Z,0
2022-12-18T00:57:23.673Z,0
2022-12-18T00:58:04.187Z,0
2022-12-18T00:58:44.674Z,0
2022-12-18T00:59:25.154Z,0
2022-12-18T01:00:05.670Z,0
2022-12-18T01:00:46.203Z,0
2022-12-18T01:01:26.732Z,0
2022-12-18T01:02:07.175Z,0
2022-12-18T01:02:47.696Z,0
2022-12-18T01:09:32.479Z,0
2022-12-18T01:10:12.968Z,0
2022-12-18T01:10:53.454Z,0
2022-12-18T01:11:33.950Z,0
2022-12-18T01:12:14.500Z,0
2022-12-18T01:12:54.964Z,0
2022-12-18T01:13:35.693Z,0
2022-12-18T01:14:15.924Z,0
2022-12-18T01:14:56.423Z,0
2022-12-18T01:15:42.909Z,0
2022-12-18T01:16:17.488Z,0
2022-12-18T01:23:02.336Z,0
2022-12-18T01:23:43.007Z,0
2022-12-18T01:24:23.309Z,0
2022-12-18T01:25:03.867Z,0
2022-12-18T01:25:44.275Z,0
2022-12-18T01:26:24.796Z,0
2022-12-18T01:27:05.283Z,0
2022-12-18T01:27:45.752Z,0
2022-12-18T01:28:26.235Z,0
2022-12-18T01:29:06.718Z,0
2022-12-18T01:29:47.225Z,0
2022-12-18T01:37:12.609Z,0
2022-12-18T01:37:53.097Z,0
2022-12-18T01:38:33.605Z,0
2022-12-18T01:39:14.087Z,0
2022-12-18T01:39:55.187Z,0
2022-12-18T01:40:35.710Z,0
2022-12-18T01:41:16.151Z,0
2022-12-18T01:41:56.638Z,0
2022-12-18T01:42:37.146Z,0
2022-12-18T01:50:02.635Z,0
2022-12-18T01:50:43.154Z,0
2022-12-18T01:51:23.607Z,0
2022-12-18T01:52:04.130Z,0
2022-12-18T01:52:44.616Z,0
2022-12-18T01:53:25.112Z,0
2022-12-18T01:54:05.579Z,0
2022-12-18T01:54:46.060Z,0
2022-12-18T01:55:26.545Z,0
2022-12-18T01:56:07.046Z,0
2022-12-18T01:56:47.537Z,0
2022-12-18T02:03:32.472Z,0
2022-12-18T02:04:12.948Z,0
2022-12-18T02:04:53.464Z,0
2022-12-18T02:05:33.967Z,0
2022-12-18T02:06:14.482Z,0
2022-12-18T02:06:54.976Z,0
2022-12-18T02:07:35.433Z,0
2022-12-18T02:08:15.948Z,0
2022-12-18T02:08:56.415Z,0
2022-12-18T02:09:36.912Z,0
2022-12-18T02:10:17.411Z,0
2022-12-18T02:17:42.699Z,0
2022-12-18T02:18:23.187Z,0
2022-12-18T02:19:03.672Z,0
2022-12-18T02:19:44.143Z,0
2022-12-18T02:20:24.662Z,0
2022-12-18T02:21:05.152Z,0
2022-12-18T02:21:45.636Z,0
2022-12-18T02:22:26.121Z,0
2022-12-18T02:23:06.636Z,0
2022-12-18T02:23:47.085Z,0
2022-12-18T02:28:30.740Z,0
2022-12-18T02:31:12.724Z,0
2022-12-18T02:31:53.110Z,0
2022-12-18T02:32:33.573Z,0
2022-12-18T02:33:14.068Z,0
2022-12-18T02:33:54.565Z,0
2022-12-18T02:34:35.043Z,0
2022-12-18T02:35:15.515Z,0
2022-12-18T02:35:56.023Z,0
2022-12-18T02:36:36.530Z,0
2022-12-18T02:37:16.983Z,0
2022-12-18T02:37:57.464Z,0
2022-12-18T02:44:42.435Z,0
2022-12-18T02:45:22.936Z,0
2022-12-18T02:46:03.502Z,0
2022-12-18T02:47:24.459Z,0
2022-12-18T02:48:04.897Z,0
2022-12-18T02:48:45.359Z,0
2022-12-18T02:49:25.839Z,0
2022-12-18T02:50:06.305Z,0
2022-12-18T02:50:46.808Z,0
2022-12-18T02:51:27.308Z,0
2022-12-18T02:58:52.718Z,0
2022-12-18T02:59:33.329Z,0
2022-12-18T03:00:14.526Z,0
2022-12-18T03:00:54.210Z,0
2022-12-18T03:01:34.801Z,0
2022-12-18T03:02:15.364Z,0
2022-12-18T03:02:55.807Z,0
2022-12-18T03:03:36.440Z,0
2022-12-18T03:04:16.635Z,0
2022-12-18T03:04:57.138Z,0
2022-12-18T03:05:37.668Z,0
2022-12-18T03:13:03.064Z,0
2022-12-18T03:13:43.555Z,0
2022-12-18T03:14:24.081Z,0
2022-12-18T03:15:04.699Z,0
2022-12-18T03:15:45.064Z,0
2022-12-18T03:16:25.627Z,0
2022-12-18T03:17:06.145Z,0
2022-12-18T03:17:46.569Z,0
2022-12-18T03:18:27.071Z,0
2022-12-18T03:19:07.525Z,0
2022-12-18T03:25:52.560Z,0
2022-12-18T03:26:33.024Z,0
2022-12-18T03:27:13.519Z,0
2022-12-18T03:27:54.000Z,0
2022-12-18T03:28:34.477Z,0
2022-12-18T03:29:14.993Z,0
2022-12-18T03:29:55.507Z,0
2022-12-18T03:30:36.156Z,0
2022-12-18T03:31:16.548Z,0
2022-12-18T03:31:56.991Z,0
2022-12-18T03:32:37.491Z,0
2022-12-18T03:39:22.477Z,0
2022-12-18T03:40:03.023Z,0
2022-12-18T03:40:43.424Z,0
2022-12-18T03:41:23.924Z,0
2022-12-18T03:42:04.395Z,0
2022-12-18T03:42:44.884Z,0
2022-12-18T03:43:25.363Z,0
2022-12-18T03:44:05.878Z,0
2022-12-18T03:44:46.362Z,0
2022-12-18T03:46:07.493Z,0
2022-12-18T03:53:08.886Z,0
2022-12-18T03:53:49.404Z,0
2022-12-18T03:54:29.911Z,0
2022-12-18T03:55:10.365Z,0
2022-12-18T03:55:50.884Z,0
2022-12-18T03:56:31.350Z,0
2022-12-18T03:57:11.830Z,0
2022-12-18T03:57:52.341Z,0
2022-12-18T03:58:32.827Z,0
2022-12-18T03:59:13.302Z,0
2022-12-18T03:59:53.769Z,0
2022-12-18T04:06:38.844Z,0
2022-12-18T04:07:19.318Z,0
2022-12-18T04:07:59.826Z,0
2022-12-18T04:08:40.310Z,0
2022-12-18T04:09:20.803Z,0
2022-12-18T04:10:01.282Z,0
2022-12-18T04:10:41.786Z,0
2022-12-18T04:11:22.293Z,0
2022-12-18T04:12:02.795Z,0
2022-12-18T04:12:43.286Z,0
2022-12-18T04:13:23.785Z,0
2022-12-18T04:20:08.772Z,0
2022-12-18T04:20:49.285Z,0
2022-12-18T04:21:29.758Z,0
2022-12-18T04:22:10.249Z,0
2022-12-18T04:22:50.754Z,0
2022-12-18T04:23:31.228Z,0
2022-12-18T04:24:11.700Z,0
2022-12-18T04:24:52.242Z,0
2022-12-18T04:25:32.714Z,0
2022-12-18T04:26:13.227Z,0
2022-12-18T04:26:53.719Z,0
2022-12-18T04:35:57.264Z,0
2022-12-18T04:36:37.752Z,0
2022-12-18T04:37:18.216Z,0
2022-12-18T04:37:58.736Z,0
2022-12-18T04:38:39.200Z,0
2022-12-18T04:39:19.735Z,0
2022-12-18T04:40:00.186Z,0
2022-12-18T04:40:41.138Z,0
2022-12-18T04:42:53.420Z,0
2022-12-18T04:43:33.860Z,0
2022-12-18T04:44:14.341Z,0
2022-12-18T04:44:54.824Z,0
2022-12-18T04:45:35.318Z,0
2022-12-18T04:46:15.884Z,0
2022-12-18T04:46:56.353Z,0
2022-12-18T04:47:36.967Z,0
2022-12-18T04:48:57.839Z,0
2022-12-18T04:49:38.330Z,0
2022-12-18T04:52:47.224Z,0
2022-12-18T04:53:27.636Z,0
2022-12-18T04:54:08.172Z,0
2022-12-18T04:54:48.638Z,0
2022-12-18T04:55:29.119Z,0
2022-12-18T04:56:09.673Z,0
2022-12-18T04:56:50.165Z,0
2022-12-18T04:57:30.658Z,0
2022-12-18T04:58:51.661Z,0
2022-12-18T04:59:32.162Z,0
2022-12-18T05:06:17.095Z,0
2022-12-18T05:06:57.552Z,0
2022-12-18T05:07:38.020Z,0
2022-12-18T05:08:18.511Z,0
2022-12-18T05:08:59.033Z,0
2022-12-18T05:09:39.523Z,0
2022-12-18T05:10:20.010Z,0
2022-12-18T05:11:00.539Z,0
2022-12-18T05:11:41.017Z,0
2022-12-18T05:12:21.506Z,0
2022-12-18T05:13:02.015Z,0
2022-12-18T05:19:47.063Z,0
2022-12-18T05:20:27.530Z,0
2022-12-18T05:21:08.027Z,0
2022-12-18T05:21:48.542Z,0
2022-12-18T05:22:29.003Z,0
2022-12-18T05:23:09.521Z,0
2022-12-18T05:23:50.028Z,0
2022-12-18T05:24:30.546Z,0
2022-12-18T05:25:11.044Z,0
2022-12-18T05:25:51.497Z,0
2022-12-18T05:26:32.098Z,0
2022-12-18T05:33:16.997Z,0
2022-12-18T05:33:57.615Z,0
2022-12-18T05:34:37.967Z,0
2022-12-18T05:35:18.489Z,0
2022-12-18T05:35:58.946Z,0
2022-12-18T05:36:39.421Z,0
2022-12-18T05:37:19.885Z,0
2022-12-18T05:38:00.389Z,0
2022-12-18T05:38:40.896Z,0
2022-12-18T05:39:21.398Z,0
2022-12-18T05:40:01.895Z,0
2022-12-18T05:46:07.449Z,0
2022-12-18T05:46:47.876Z,0
2022-12-18T05:47:28.313Z,0
2022-12-18T05:48:08.880Z,0
2022-12-18T05:48:49.354Z,0
2022-12-18T05:49:29.949Z,0
2022-12-18T05:50:10.357Z,0
2022-12-18T05:50:50.848Z,0
2022-12-18T05:51:31.405Z,0
2022-12-18T05:52:11.872Z,0
2022-12-18T06:32:03.256Z,0
2022-12-18T06:32:43.507Z,0
2022-12-18T06:33:24.018Z,0
2022-12-18T06:34:04.508Z,0
2022-12-18T06:34:45.015Z,0
2022-12-18T06:35:25.462Z,0
2022-12-18T06:36:06.031Z,0
2022-12-18T06:36:46.556Z,0
2022-12-18T06:37:27.054Z,0
2022-12-18T06:38:48.049Z,0
2022-12-18T06:45:33.109Z,0
2022-12-18T06:46:13.528Z,0
2022-12-18T06:46:53.952Z,0
2022-12-18T06:47:34.575Z,0
2022-12-18T06:48:14.969Z,0
2022-12-18T06:48:55.460Z,0
2022-12-18T06:49:35.953Z,0
2022-12-18T06:50:16.496Z,0
2022-12-18T06:50:56.943Z,0
2022-12-18T06:51:37.451Z,4
2022-12-18T06:52:17.976Z,0
2022-12-18T06:59:02.993Z,0
2022-12-18T06:59:43.522Z,4
2022-12-18T07:00:24.027Z,0
2022-12-18T07:01:04.583Z,4
2022-12-18T07:01:45.276Z,0
2022-12-18T07:02:25.523Z,4
2022-12-18T07:03:06.101Z,4
2022-12-18T07:03:46.506Z,0
2022-12-18T07:04:26.961Z,4
2022-12-18T07:05:10.619Z,4
2022-12-18T07:12:32.993Z,12
2022-12-18T07:13:13.521Z,12
2022-12-18T07:13:54.023Z,16
2022-12-18T07:14:34.545Z,16
2022-12-18T07:15:15.062Z,20
2022-12-18T07:15:55.676Z,16
2022-12-18T07:16:36.143Z,20
2022-12-18T07:17:16.641Z,24
2022-12-18T07:17:57.125Z,24
2022-12-18T07:18:37.731Z,24
2022-12-18T07:26:03.154Z,48
2022-12-18T07:26:43.657Z,52
2022-12-18T07:27:24.137Z,52
2022-12-18T07:28:04.650Z,56
2022-12-18T07:28:45.097Z,60
2022-12-18T07:29:25.549Z,68
2022-12-18T07:30:06.047Z,68
2022-12-18T07:30:46.742Z,76
2022-12-18T07:31:27.294Z,76
2022-12-18T07:32:07.726Z,80
2022-12-18T07:39:33.206Z,124
2022-12-18T07:40:14.276Z,128
2022-12-18T07:40:54.778Z,136
2022-12-18T07:41:35.362Z,140
2022-12-18T07:42:15.819Z,144
2022-12-18T07:42:56.369Z,148
2022-12-18T07:44:17.354Z,156
2022-12-18T07:44:57.851Z,164
2022-12-18T07:51:42.932Z,232
2022-12-18T07:52:26.077Z,244
2022-12-18T07:53:03.949Z,248
2022-12-18T07:53:44.421Z,256
2022-12-18T07:54:24.946Z,264
2022-12-18T07:55:05.450Z,268
2022-12-18T07:56:05.757Z,276
2022-12-18T07:56:28.492Z,280
2022-12-18T07:57:16.409Z,284
2022-12-18T07:57:52.636Z,288
2022-12-18T07:58:28.032Z,300
2022-12-18T08:05:13.222Z,364
2022-12-18T08:05:53.643Z,372
2022-12-18T08:06:34.173Z,380
2022-12-18T08:07:14.647Z,380
2022-12-18T08:07:55.167Z,396
2022-12-18T08:08:35.674Z,404
2022-12-18T08:09:16.201Z,408
2022-12-18T08:12:29.865Z,444
2022-12-18T08:13:10.311Z,452
2022-12-18T08:13:50.808Z,460
2022-12-18T08:14:31.278Z,472
2022-12-18T08:15:11.835Z,488
2022-12-18T08:15:52.839Z,500
2022-12-18T08:16:32.914Z,512
2022-12-18T08:17:13.411Z,520
2022-12-18T08:17:53.880Z,524
2022-12-18T08:18:34.379Z,528
2022-12-18T08:25:59.938Z,580
2022-12-18T08:26:40.425Z,588
2022-12-18T08:27:29.198Z,596
2022-12-18T08:28:01.484Z,596
2022-12-18T08:28:41.995Z,588
2022-12-18T08:29:22.519Z,584
2022-12-18T08:30:03.042Z,592
2022-12-18T08:30:43.540Z,604
2022-12-18T08:31:24.018Z,620
2022-12-18T08:36:48.395Z,572
2022-12-18T08:38:49.855Z,572
2022-12-18T08:39:30.344Z,568
2022-12-18T08:40:10.792Z,572
2022-12-18T08:40:51.333Z,576
2022-12-18T08:41:31.844Z,592
2022-12-18T08:42:52.897Z,628
2022-12-18T08:43:33.294Z,648
2022-12-18T08:44:13.794Z,660
2022-12-18T08:44:54.315Z,684
2022-12-18T08:45:34.917Z,704
2022-12-18T08:51:39.533Z,772
2022-12-18T08:52:19.924Z,768
2022-12-18T08:53:00.482Z,776
2022-12-18T08:53:41.342Z,780
2022-12-18T08:54:21.506Z,788
2022-12-18T08:55:01.992Z,792
2022-12-18T08:55:45.808Z,800
2022-12-18T08:56:22.969Z,812
2022-12-18T08:57:03.418Z,828
2022-12-18T08:57:43.892Z,832
2022-12-18T08:59:56.867Z,876
2022-12-18T09:00:37.258Z,888
2022-12-18T09:01:17.881Z,872
2022-12-18T09:01:58.356Z,868
2022-12-18T09:02:38.871Z,864
2022-12-18T09:03:19.281Z,852
2022-12-18T09:03:59.731Z,840
2022-12-18T09:04:40.229Z,836
2022-12-18T09:05:21.538Z,820
2022-12-18T09:12:46.767Z,776
2022-12-18T09:13:27.286Z,772
2022-12-18T09:14:07.742Z,768
2022-12-18T09:14:48.228Z,760
2022-12-18T09:15:28.756Z,764
2022-12-18T09:16:09.229Z,772
2022-12-18T09:16:49.781Z,788
2022-12-18T09:17:30.247Z,800
2022-12-18T09:18:10.721Z,824
2022-12-18T09:18:51.171Z,832
2022-12-18T09:19:31.650Z,848
2022-12-18T09:26:16.544Z,960
2022-12-18T09:26:57.943Z,976
2022-12-18T09:27:37.587Z,996
2022-12-18T09:28:18.061Z,1004
2022-12-18T09:28:58.523Z,976
2022-12-18T09:29:39.014Z,956
2022-12-18T09:30:19.489Z,976
2022-12-18T09:31:00.068Z,960
2022-12-18T09:31:40.491Z,936
2022-12-18T09:32:22.552Z,900
2022-12-18T09:33:01.414Z,884
2022-12-18T09:40:26.727Z,908
2022-12-18T09:41:07.258Z,920
2022-12-18T09:41:47.729Z,924
2022-12-18T09:42:28.216Z,920
2022-12-18T09:43:08.720Z,888
2022-12-18T09:43:49.217Z,880
2022-12-18T09:44:29.721Z,880
2022-12-18T09:45:10.294Z,888
2022-12-18T09:45:50.738Z,880
2022-12-18T09:46:31.211Z,888
2022-12-18T09:47:11.652Z,900
2022-12-18T09:53:56.631Z,920
2022-12-18T09:54:37.062Z,920
2022-12-18T09:55:17.603Z,916
2022-12-18T09:55:58.072Z,920
2022-12-18T09:56:38.555Z,928
2022-12-18T09:57:19.062Z,936
2022-12-18T09:57:59.547Z,940
2022-12-18T09:58:40.418Z,948
2022-12-18T09:59:20.571Z,964
2022-12-18T10:00:01.026Z,972
2022-12-18T10:00:41.492Z,968
2022-12-18T10:07:26.548Z,980
2022-12-18T10:08:07.062Z,980
2022-12-18T10:08:47.651Z,992
2022-12-18T10:09:28.042Z,1016
2022-12-18T10:10:08.492Z,1028
2022-12-18T10:10:48.967Z,1032
2022-12-18T10:11:29.434Z,1032
2022-12-18T10:12:09.973Z,1028
2022-12-18T10:12:50.411Z,1044
2022-12-18T10:13:30.865Z,1056
2022-12-18T10:14:11.321Z,1064
2022-12-18T10:21:36.753Z,1108
2022-12-18T10:22:17.238Z,1100
2022-12-18T10:22:57.720Z,1104
2022-12-18T10:23:38.220Z,1112
2022-12-18T10:24:18.804Z,1096
2022-12-18T10:24:59.234Z,1100
2022-12-18T10:25:39.675Z,1104
2022-12-18T10:26:20.150Z,1100
2022-12-18T10:27:00.640Z,1080
2022-12-18T10:27:41.111Z,1076
2022-12-18T10:34:26.600Z,1028
2022-12-18T10:35:07.084Z,1032
2022-12-18T10:35:47.573Z,1028
2022-12-18T10:36:28.052Z,1020
2022-12-18T10:37:08.529Z,1024
2022-12-18T10:37:49.015Z,1024
2022-12-18T10:38:29.504Z,1020
2022-12-18T10:39:10.023Z,1016
2022-12-18T10:39:50.597Z,1008
2022-12-18T10:40:30.948Z,1004
2022-12-18T10:41:11.465Z,1000
2022-12-18T10:48:36.821Z,960
2022-12-18T10:49:17.296Z,964
2022-12-18T10:49:57.762Z,960
2022-12-18T10:51:09.536Z,960
2022-12-18T10:51:18.714Z,952
2022-12-18T10:51:59.198Z,956
2022-12-18T10:52:43.598Z,944
2022-12-18T10:53:20.233Z,952
2022-12-18T10:54:00.695Z,940
2022-12-18T10:54:41.174Z,944
2022-12-18T10:55:21.776Z,948
2022-12-18T10:56:42.638Z,960
2022-12-18T11:02:06.618Z,972
2022-12-18T11:02:47.251Z,976
2022-12-18T11:03:27.555Z,976
2022-12-18T11:04:08.135Z,972
2022-12-18T11:04:48.568Z,972
2022-12-18T11:05:29.051Z,968
2022-12-18T11:06:09.574Z,972
2022-12-18T11:06:50.062Z,968
2022-12-18T11:07:30.550Z,968
2022-12-18T11:08:11.060Z,964
2022-12-18T11:08:51.523Z,952
2022-12-18T11:15:36.414Z,912
2022-12-18T11:16:16.946Z,904
2022-12-18T11:17:24.123Z,904
2022-12-18T11:17:37.954Z,900
2022-12-18T11:18:18.443Z,892
2022-12-18T11:18:58.920Z,888
2022-12-18T11:19:39.408Z,884
2022-12-18T11:20:19.907Z,884
2022-12-18T11:21:00.433Z,880
2022-12-18T11:21:40.904Z,880
2022-12-18T11:22:21.457Z,880
2022-12-18T11:29:06.380Z,836
2022-12-18T11:29:47.052Z,836
2022-12-18T11:30:27.366Z,832
2022-12-18T11:31:07.903Z,840
2022-12-18T11:31:48.429Z,844
2022-12-18T11:32:28.838Z,848
2022-12-18T11:33:09.327Z,844
2022-12-18T11:34:12.230Z,848
2022-12-18T11:34:30.680Z,848
2022-12-18T11:35:10.828Z,848
2022-12-18T11:35:51.319Z,848
2022-12-18T11:43:16.716Z,828
2022-12-18T11:43:57.224Z,824
2022-12-18T11:44:37.691Z,816
2022-12-18T11:45:18.181Z,816
2022-12-18T11:45:58.687Z,812
2022-12-18T11:46:39.254Z,808
2022-12-18T11:47:19.705Z,804
2022-12-18T11:48:00.189Z,804
2022-12-18T11:48:41.046Z,800
2022-12-18T11:49:21.216Z,800
2022-12-18T11:50:01.709Z,792
2022-12-18T12:32:30.914Z,588
2022-12-18T12:33:11.204Z,592
2022-12-18T12:33:51.651Z,592
2022-12-18T12:34:32.151Z,588
2022-12-18T12:35:12.624Z,592
2022-12-18T12:35:53.118Z,592
2022-12-18T12:36:33.598Z,592
2022-12-18T12:37:14.075Z,592
2022-12-18T12:37:54.580Z,592
2022-12-18T12:38:35.100Z,588
2022-12-18T12:45:20.852Z,568
2022-12-18T12:46:01.408Z,564
2022-12-18T12:47:22.401Z,564
2022-12-18T12:48:03.038Z,564
2022-12-18T12:48:43.697Z,564
2022-12-18T12:49:23.899Z,560
2022-12-18T12:50:04.399Z,564
2022-12-18T12:50:44.898Z,564
2022-12-18T12:51:25.484Z,568
2022-12-18T12:58:50.789Z,564
2022-12-18T12:59:31.304Z,560
2022-12-18T13:00:11.890Z,556
2022-12-18T13:00:52.317Z,552
2022-12-18T13:01:32.844Z,552
2022-12-18T13:02:13.267Z,552
2022-12-18T13:02:53.728Z,548
2022-12-18T13:03:34.322Z,548
2022-12-18T13:04:14.714Z,548
2022-12-18T13:04:55.237Z,544
2022-12-18T13:05:35.687Z,540
2022-12-18T13:12:20.631Z,512
2022-12-18T13:13:01.138Z,512
2022-12-18T13:13:41.603Z,508
2022-12-18T13:14:22.080Z,508
2022-12-18T13:15:02.678Z,504
2022-12-18T13:15:43.012Z,500
2022-12-18T13:16:23.483Z,500
2022-12-18T13:17:03.977Z,500
2022-12-18T13:17:44.448Z,492
2022-12-18T13:18:24.944Z,496
2022-12-18T13:19:05.573Z,492
2022-12-18T13:25:50.427Z,460
2022-12-18T13:26:30.862Z,460
2022-12-18T13:27:11.344Z,460
2022-12-18T13:27:51.815Z,456
2022-12-18T13:28:32.333Z,452
2022-12-18T13:29:12.801Z,452
2022-12-18T13:29:53.276Z,448
2022-12-18T13:30:33.762Z,452
2022-12-18T13:31:14.269Z,444
2022-12-18T13:31:54.749Z,444
2022-12-18T13:32:35.236Z,444
2022-12-18T13:33:15.732Z,440
2022-12-18T13:40:00.731Z,424
2022-12-18T13:40:41.257Z,424
2022-12-18T13:41:21.724Z,416
2022-12-18T13:42:02.239Z,416
2022-12-18T13:42:42.729Z,408
2022-12-18T13:43:23.242Z,408
2022-12-18T13:44:03.808Z,400
2022-12-18T13:44:44.220Z,396
2022-12-18T13:45:24.756Z,396
2022-12-18T13:46:05.258Z,392
2022-12-18T13:53:30.663Z,364
2022-12-18T13:54:11.150Z,360
2022-12-18T13:54:51.611Z,368
2022-12-18T13:55:32.154Z,356
2022-12-18T13:56:12.558Z,356
2022-12-18T13:56:53.013Z,352
2022-12-18T13:57:33.498Z,352
2022-12-18T13:58:13.986Z,348
2022-12-18T13:58:54.652Z,344
2022-12-18T13:59:35.109Z,340
2022-12-18T14:00:15.623Z,340
2022-12-18T14:07:00.611Z,300
2022-12-18T14:07:41.985Z,296
2022-12-18T14:08:21.589Z,296
2022-12-18T14:09:02.147Z,288
2022-12-18T14:09:42.639Z,284
2022-12-18T14:10:44.484Z,280
2022-12-18T14:11:03.646Z,276
2022-12-18T14:11:44.122Z,268
2022-12-18T14:12:24.593Z,268
2022-12-18T14:13:05.079Z,260
2022-12-18T14:13:45.569Z,256
2022-12-18T14:20:30.471Z,208
2022-12-18T14:21:11.135Z,204
2022-12-18T14:21:51.463Z,200
2022-12-18T14:22:31.948Z,196
2022-12-18T14:23:12.463Z,192
2022-12-18T14:23:52.955Z,192
2022-12-18T14:24:33.428Z,188
2022-12-18T14:25:13.938Z,184
2022-12-18T14:25:54.462Z,184
2022-12-18T14:26:35.528Z,180
2022-12-18T14:27:15.403Z,180
2022-12-18T14:34:40.769Z,152
2022-12-18T14:35:21.275Z,152
2022-12-18T14:36:01.792Z,152
2022-12-18T14:36:42.445Z,152
2022-12-18T14:37:22.880Z,148
2022-12-18T14:38:03.327Z,144
2022-12-18T14:38:43.817Z,144
2022-12-18T14:39:24.326Z,140
2022-12-18T14:40:10.792Z,140
2022-12-18T14:40:45.280Z,132
2022-12-18T14:48:10.664Z,96
2022-12-18T14:48:51.111Z,92
2022-12-18T14:49:31.650Z,92
2022-12-18T14:50:12.115Z,88
2022-12-18T14:50:52.625Z,84
2022-12-18T14:51:33.132Z,80
2022-12-18T14:52:13.756Z,76
2022-12-18T14:52:54.147Z,76
2022-12-18T14:53:34.619Z,76
2022-12-18T14:54:55.557Z,72
2022-12-18T15:01:40.506Z,52
2022-12-18T15:02:21.024Z,48
2022-12-18T15:03:01.478Z,48
2022-12-18T15:03:42.322Z,48
2022-12-18T15:04:22.277Z,44
2022-12-18T15:05:02.775Z,44
2022-12-18T15:05:43.273Z,40
2022-12-18T15:06:23.704Z,40
2022-12-18T15:07:04.228Z,36
2022-12-18T15:07:44.757Z,32
2022-12-18T15:08:25.161Z,32
2022-12-18T15:09:05.632Z,32
2022-12-18T15:15:50.829Z,20
2022-12-18T15:16:31.295Z,20
2022-12-18T15:17:11.727Z,16
2022-12-18T15:17:52.190Z,20
2022-12-18T15:18:32.730Z,16
2022-12-18T15:19:13.185Z,16
2022-12-18T15:19:53.782Z,16
2022-12-18T15:20:34.312Z,16
2022-12-18T15:21:14.784Z,16
2022-12-18T15:21:55.292Z,12
2022-12-18T15:29:20.584Z,8
2022-12-18T15:30:01.061Z,8
2022-12-18T15:30:41.672Z,8
2022-12-18T15:31:22.128Z,8
2022-12-18T15:32:02.531Z,8
2022-12-18T15:32:43.061Z,4
2022-12-18T15:33:23.523Z,4
2022-12-18T15:34:03.995Z,4
2022-12-18T15:34:44.488Z,8
2022-12-18T15:35:24.994Z,4
2022-12-18T15:36:05.468Z,4
2022-12-18T15:42:50.460Z,4
2022-12-18T15:43:30.976Z,4
2022-12-18T15:44:11.453Z,0
2022-12-18T15:44:51.934Z,0
2022-12-18T15:45:32.394Z,0
2022-12-18T15:46:12.990Z,0
2022-12-18T15:46:53.391Z,0
2022-12-18T15:47:33.876Z,0
2022-12-18T15:48:14.347Z,0
2022-12-18T15:48:59.717Z,0
2022-12-18T15:49:35.363Z,0
2022-12-18T15:57:00.704Z,0
2022-12-18T15:57:41.153Z,0
2022-12-18T15:58:21.726Z,0
2022-12-18T15:59:02.163Z,0
2022-12-18T15:59:42.687Z,0
2022-12-18T16:00:23.147Z,0
2022-12-18T16:01:03.722Z,0
2022-12-18T16:01:44.201Z,0
2022-12-18T16:02:24.791Z,0
2022-12-18T16:03:05.312Z,0
2022-12-18T16:03:45.914Z,0
2022-12-18T16:10:30.514Z,0
2022-12-18T16:11:11.012Z,0
2022-12-18T16:11:51.608Z,0
2022-12-18T16:12:32.125Z,0
2022-12-18T16:13:12.725Z,0
2022-12-18T16:13:53.105Z,0
2022-12-18T16:14:33.617Z,0
2022-12-18T16:15:14.126Z,0
2022-12-18T16:15:54.642Z,0
2022-12-18T16:16:35.150Z,0
2022-12-18T16:17:15.587Z,0
2022-12-18T16:24:00.432Z,0
2022-12-18T16:24:40.904Z,0
2022-12-18T16:25:21.498Z,0
2022-12-18T16:26:01.907Z,0
2022-12-18T16:26:42.376Z,0
2022-12-18T16:27:22.918Z,0
2022-12-18T16:28:03.381Z,0
2022-12-18T16:28:48.346Z,0
2022-12-18T16:29:24.381Z,0
2022-12-18T16:30:04.880Z,0
2022-12-18T16:30:45.410Z,0
2022-12-18T16:37:31.043Z,0
2022-12-18T16:38:10.822Z,0
2022-12-18T16:38:51.316Z,0
2022-12-18T16:39:31.812Z,0
2022-12-18T16:40:12.307Z,0
2022-12-18T16:40:53.092Z,0
2022-12-18T16:41:33.470Z,0
2022-12-18T16:42:13.952Z,0
2022-12-18T16:42:54.485Z,0
2022-12-18T16:43:34.918Z,0
2022-12-18T16:45:47.811Z,0
2022-12-18T16:46:28.182Z,0
2022-12-18T16:47:09.194Z,0
2022-12-18T16:47:49.193Z,0
2022-12-18T16:48:29.637Z,0
2022-12-18T16:49:10.138Z,0
2022-12-18T16:49:50.689Z,0
2022-12-18T16:50:31.132Z,0
2022-12-18T16:51:11.667Z,0
2022-12-18T16:51:52.125Z,0
2022-12-18T16:52:32.664Z,0
2022-12-18T16:59:17.645Z,0
2022-12-18T17:00:03.098Z,0
2022-12-18T17:00:39.128Z,0
2022-12-18T17:01:19.856Z,0
2022-12-18T17:02:00.331Z,0
2022-12-18T17:02:40.973Z,0
2022-12-18T17:03:21.211Z,0
2022-12-18T17:04:01.734Z,0
2022-12-18T17:04:42.139Z,0
2022-12-18T17:05:22.668Z,0
2022-12-18T17:12:07.580Z,0
2022-12-18T17:12:48.128Z,0
2022-12-18T17:13:28.605Z,0
2022-12-18T17:14:09.104Z,0
2022-12-18T17:14:50.103Z,0
2022-12-18T17:15:30.580Z,0
2022-12-18T17:16:11.149Z,0
2022-12-18T17:17:19.065Z,0
2022-12-18T17:17:32.033Z,0
2022-12-18T17:18:12.549Z,0
2022-12-18T17:24:57.518Z,0
2022-12-18T17:25:38.022Z,0
2022-12-18T17:26:18.513Z,0
2022-12-18T17:26:59.196Z,0
2022-12-18T17:27:39.560Z,0
2022-12-18T17:28:20.061Z,0
2022-12-18T17:29:00.546Z,0
2022-12-18T17:29:46.732Z,0
2022-12-18T17:30:21.529Z,0
2022-12-18T17:31:02.056Z,0
2022-12-18T17:31:42.602Z,0
2022-12-18T17:38:27.610Z,0
2022-12-18T17:39:08.418Z,0
2022-12-18T17:39:48.745Z,0
2022-12-18T17:40:29.219Z,0
2022-12-18T17:41:09.681Z,0
2022-12-18T17:41:50.258Z,0
2022-12-18T17:42:30.792Z,0
2022-12-18T17:43:11.168Z,0
2022-12-18T17:43:51.623Z,0
2022-12-18T17:44:32.120Z,0
2022-12-18T17:51:57.711Z,0
2022-12-18T17:52:38.218Z,0
2022-12-18T17:53:18.730Z,0
2022-12-18T17:53:59.224Z,0
2022-12-18T18:34:11.313Z,0
2022-12-18T18:34:51.566Z,0
2022-12-18T18:35:53.218Z,0
2022-12-18T18:36:12.532Z,0
2022-12-18T18:36:53.004Z,0
2022-12-18T18:37:33.515Z,0
2022-12-18T18:38:54.470Z,0
2022-12-18T18:39:34.968Z,0
2022-12-18T18:40:15.452Z,0
2022-12-18T18:47:01.275Z,0
2022-12-18T18:47:41.736Z,0
2022-12-18T18:48:22.275Z,0
2022-12-18T18:49:02.816Z,0
2022-12-18T18:50:23.942Z,0
2022-12-18T18:51:04.388Z,0
2022-12-18T18:51:44.923Z,0
2022-12-18T18:52:25.412Z,0
2022-12-18T18:53:05.916Z,0
2022-12-18T18:59:50.907Z,0
2022-12-18T19:00:31.433Z,0
2022-12-18T19:01:12.004Z,0
2022-12-18T19:01:52.718Z,0
2022-12-18T19:02:33.109Z,0
2022-12-18T19:03:13.567Z,0
2022-12-18T19:06:32.422Z,0
2022-12-18T19:07:12.929Z,0
2022-12-18T19:07:53.461Z,0
2022-12-18T19:08:33.991Z,0
2022-12-18T19:09:14.505Z,0
2022-12-18T19:09:54.980Z,0
2022-12-18T19:10:35.586Z,0
2022-12-18T19:11:16.026Z,0
2022-12-18T19:11:56.458Z,0
2022-12-18T19:12:36.954Z,0
2022-12-18T19:20:02.452Z,0
2022-12-18T19:20:42.922Z,0
2022-12-18T19:21:23.429Z,0
2022-12-18T19:22:04.076Z,0
2022-12-18T19:22:45.279Z,0
2022-12-18T19:23:24.916Z,0
2022-12-18T19:24:05.431Z,0
2022-12-18T19:24:45.916Z,0
2022-12-18T19:25:38.279Z,0
2022-12-18T19:28:40.680Z,0
2022-12-18T19:29:21.371Z,0
2022-12-18T19:30:02.464Z,0
2022-12-18T19:30:43.454Z,0
2022-12-18T19:31:26.247Z,0
2022-12-18T19:32:05.463Z,0
2022-12-18T19:35:30.526Z,0
2022-12-18T19:36:11.509Z,0
2022-12-18T19:36:56.625Z,0
2022-12-18T19:37:33.636Z,0
2022-12-18T19:38:14.597Z,0
2022-12-18T19:42:25.630Z,0
2022-12-18T19:43:01.853Z,0
2022-12-18T19:43:42.824Z,0
2022-12-18T19:44:23.756Z,0
2022-12-18T19:45:04.718Z,0
2022-12-18T19:48:31.706Z,0
2022-12-18T19:49:13.699Z,0
2022-12-18T19:49:53.691Z,0
2022-12-18T19:50:34.629Z,0
2022-12-18T19:54:01.365Z,0
2022-12-18T19:54:40.867Z,0
2022-12-18T19:55:21.852Z,0
2022-12-18T19:56:02.829Z,0
2022-12-18T19:56:43.820Z,0
2022-12-18T19:57:24.798Z,0
2022-12-18T20:00:50.298Z,0
2022-12-18T20:01:31.407Z,0
2022-12-18T20:02:12.662Z,0
2022-12-18T20:02:56.723Z,0
2022-12-18T20:03:34.490Z,0
2022-12-18T20:04:15.467Z,0
2022-12-18T20:07:40.408Z,0
2022-12-18T20:08:21.265Z,0
2022-12-18T20:09:02.268Z,0
2022-12-18T20:09:43.395Z,0
2022-12-18T20:10:24.352Z,0
2022-12-18T20:11:05.327Z,0